createdAt,value
2022-12-24T00:00:27.262Z,0.00
2022-12-24T00:01:27.149Z,0.00
2022-12-24T00:02:27.242Z,0.00
2022-12-24T00:03:27.276Z,0.00
2022-12-24T00:04:27.098Z,0.00
2022-12-24T00:05:27.088Z,0.00
2022-12-24T00:06:27.055Z,0.00
2022-12-24T00:07:27.025Z,0.00
2022-12-24T00:08:27.007Z,0.00
2022-12-24T00:09:26.984Z,0.00
2022-12-24T00:10:26.958Z,0.00
2022-12-24T00:11:26.939Z,0.00
2022-12-24T00:12:26.914Z,0.00
2022-12-24T00:13:26.902Z,0.00
2022-12-24T00:14:26.876Z,0.00
2022-12-24T00:15:26.862Z,0.00
2022-12-24T00:16:26.909Z,0.00
2022-12-24T00:17:26.814Z,0.00
2022-12-24T00:18:26.800Z,0.00
2022-12-24T00:19:26.772Z,0.00
2022-12-24T00:20:26.755Z,0.00
2022-12-24T00:21:26.770Z,0.00
2022-12-24T00:22:26.705Z,0.00
2022-12-24T00:23:26.687Z,0.00
2022-12-24T00:24:26.659Z,0.00
2022-12-24T00:25:26.677Z,0.00
2022-12-24T00:26:26.629Z,0.00
2022-12-24T00:27:26.606Z,0.00
2022-12-24T00:28:26.595Z,0.00
2022-12-24T00:29:26.565Z,0.00
2022-12-24T00:30:26.541Z,0.00
2022-12-24T00:31:26.648Z,0.00
2022-12-24T00:32:26.508Z,0.00
2022-12-24T00:33:26.471Z,0.00
2022-12-24T00:34:26.459Z,0.00
2022-12-24T00:35:26.435Z,0.00
2022-12-24T00:36:26.413Z,0.00
2022-12-24T00:37:26.423Z,0.00
2022-12-24T00:38:26.370Z,0.00
2022-12-24T00:39:26.354Z,0.00
2022-12-24T00:40:26.336Z,0.00
2022-12-24T00:41:26.625Z,0.00
2022-12-24T00:42:26.291Z,0.00
2022-12-24T00:43:26.268Z,0.00
2022-12-24T00:44:26.249Z,0.00
2022-12-24T00:45:26.225Z,0.00
2022-12-24T00:46:26.352Z,0.00
2022-12-24T00:47:26.186Z,0.00
2022-12-24T00:48:26.163Z,0.00
2022-12-24T00:49:26.145Z,0.00
2022-12-24T00:50:26.120Z,0.00
2022-12-24T00:51:26.200Z,0.00
2022-12-24T00:52:26.087Z,0.00
2022-12-24T00:53:26.090Z,0.00
2022-12-24T00:54:26.033Z,0.00
2022-12-24T00:55:26.015Z,0.00
2022-12-24T00:56:25.995Z,0.00
2022-12-24T00:57:25.974Z,0.00
2022-12-24T00:58:25.951Z,0.00
2022-12-24T00:59:25.935Z,0.00
2022-12-24T01:00:25.908Z,0.00
2022-12-24T01:01:26.024Z,0.00
2022-12-24T01:02:26.113Z,0.00
2022-12-24T01:03:25.875Z,0.00
2022-12-24T01:04:25.818Z,0.00
2022-12-24T01:05:25.806Z,0.00
2022-12-24T01:06:25.782Z,0.00
2022-12-24T01:07:25.758Z,0.00
2022-12-24T01:08:25.755Z,0.00
2022-12-24T01:09:25.741Z,0.00
2022-12-24T01:10:25.699Z,0.00
2022-12-24T01:11:25.684Z,0.00
2022-12-24T01:12:25.657Z,0.00
2022-12-24T01:13:25.636Z,0.00
2022-12-24T01:14:25.613Z,0.00
2022-12-24T01:15:25.591Z,0.00
2022-12-24T01:16:25.652Z,0.00
2022-12-24T01:17:25.552Z,0.00
2022-12-24T01:18:25.527Z,0.00
2022-12-24T01:19:25.508Z,0.00
2022-12-24T01:20:25.485Z,0.00
2022-12-24T01:21:25.472Z,0.00
2022-12-24T01:22:25.444Z,0.00
2022-12-24T01:23:25.427Z,0.00
2022-12-24T01:24:25.399Z,0.00
2022-12-24T01:25:25.409Z,0.00
2022-12-24T01:26:25.365Z,0.00
2022-12-24T01:27:25.336Z,0.00
2022-12-24T01:28:25.321Z,0.00
2022-12-24T01:29:25.295Z,0.00
2022-12-24T01:30:25.279Z,0.00
2022-12-24T01:31:25.314Z,0.00
2022-12-24T01:32:25.249Z,0.00
2022-12-24T01:33:25.209Z,0.00
2022-12-24T01:34:25.194Z,0.00
2022-12-24T01:35:25.173Z,0.00
2022-12-24T01:36:25.155Z,0.00
2022-12-24T01:37:25.128Z,0.00
2022-12-24T01:38:25.107Z,0.00
2022-12-24T01:39:25.092Z,0.00
2022-12-24T01:40:25.064Z,0.00
2022-12-24T01:41:25.067Z,0.00
2022-12-24T01:42:25.031Z,0.00
2022-12-24T01:43:25.017Z,0.00
2022-12-24T01:44:28.431Z,0.00
2022-12-24T01:45:24.956Z,0.00
2022-12-24T01:46:25.043Z,0.00
2022-12-24T01:47:24.919Z,0.00
2022-12-24T01:48:24.898Z,0.00
2022-12-24T01:49:24.875Z,0.00
2022-12-24T01:50:24.859Z,0.00
2022-12-24T01:51:24.837Z,0.00
2022-12-24T01:52:24.814Z,0.00
2022-12-24T01:53:24.809Z,0.00
2022-12-24T01:54:24.780Z,0.00
2022-12-24T01:55:24.752Z,0.00
2022-12-24T01:56:24.761Z,0.00
2022-12-24T01:57:24.725Z,0.00
2022-12-24T01:58:24.687Z,0.00
2022-12-24T01:59:24.722Z,0.00
2022-12-24T02:00:24.656Z,0.00
2022-12-24T02:01:24.741Z,0.00
2022-12-24T02:02:24.804Z,0.00
2022-12-24T02:03:24.626Z,0.00
2022-12-24T02:04:24.566Z,0.00
2022-12-24T02:05:24.536Z,0.00
2022-12-24T02:06:24.516Z,0.00
2022-12-24T02:07:24.512Z,0.00
2022-12-24T02:08:24.478Z,0.00
2022-12-24T02:09:24.456Z,0.00
2022-12-24T02:10:24.441Z,0.00
2022-12-24T02:11:24.422Z,0.00
2022-12-24T02:12:24.393Z,0.00
2022-12-24T02:13:24.395Z,0.00
2022-12-24T02:14:24.347Z,0.00
2022-12-24T02:15:24.327Z,0.00
2022-12-24T02:16:24.418Z,0.00
2022-12-24T02:17:24.288Z,0.00
2022-12-24T02:18:24.267Z,0.00
2022-12-24T02:19:24.243Z,0.00
2022-12-24T02:20:24.230Z,0.00
2022-12-24T02:21:24.204Z,0.00
2022-12-24T02:22:24.189Z,0.00
2022-12-24T02:23:24.160Z,0.00
2022-12-24T02:24:24.141Z,0.00
2022-12-24T02:25:24.121Z,0.00
2022-12-24T02:26:24.101Z,0.00
2022-12-24T02:27:24.109Z,0.00
2022-12-24T02:28:24.058Z,0.00
2022-12-24T02:29:24.055Z,0.00
2022-12-24T02:30:24.016Z,0.00
2022-12-24T02:31:24.023Z,0.00
2022-12-24T02:32:23.984Z,0.00
2022-12-24T02:33:23.950Z,0.00
2022-12-24T02:34:23.935Z,0.00
2022-12-24T02:35:23.913Z,0.00
2022-12-24T02:36:23.893Z,0.00
2022-12-24T02:37:23.868Z,0.00
2022-12-24T02:38:23.848Z,0.00
2022-12-24T02:39:23.828Z,0.00
2022-12-24T02:40:23.815Z,0.00
2022-12-24T02:41:23.787Z,0.00
2022-12-24T02:42:23.768Z,0.00
2022-12-24T02:43:23.737Z,0.00
2022-12-24T02:44:23.726Z,0.00
2022-12-24T02:45:23.728Z,0.00
2022-12-24T02:46:23.713Z,0.00
2022-12-24T02:47:23.667Z,0.00
2022-12-24T02:48:23.646Z,0.00
2022-12-24T02:49:23.617Z,0.00
2022-12-24T02:50:23.597Z,0.00
2022-12-24T02:51:23.567Z,0.00
2022-12-24T02:52:23.553Z,0.00
2022-12-24T02:53:23.527Z,0.00
2022-12-24T02:54:23.514Z,0.00
2022-12-24T02:55:23.494Z,0.00
2022-12-24T02:56:23.477Z,0.00
2022-12-24T02:57:23.448Z,0.00
2022-12-24T02:58:23.427Z,0.00
2022-12-24T02:59:23.405Z,0.00
2022-12-24T03:00:23.469Z,0.00
2022-12-24T03:01:23.540Z,0.00
2022-12-24T03:02:23.498Z,0.00
2022-12-24T03:03:23.321Z,0.00
2022-12-24T03:04:23.297Z,0.00
2022-12-24T03:05:23.283Z,0.00
2022-12-24T03:06:23.265Z,0.00
2022-12-24T03:07:23.237Z,0.00
2022-12-24T03:08:23.219Z,0.00
2022-12-24T03:09:23.196Z,0.00
2022-12-24T03:10:23.179Z,0.00
2022-12-24T03:11:23.147Z,0.00
2022-12-24T03:12:23.155Z,0.00
2022-12-24T03:13:23.111Z,0.00
2022-12-24T03:14:23.096Z,0.00
2022-12-24T03:15:23.063Z,0.00
2022-12-24T03:16:23.093Z,0.00
2022-12-24T03:17:23.041Z,0.00
2022-12-24T03:18:23.000Z,0.00
2022-12-24T03:19:22.990Z,0.00
2022-12-24T03:20:22.965Z,0.00
2022-12-24T03:21:22.944Z,0.00
2022-12-24T03:22:22.932Z,0.00
2022-12-24T03:23:22.897Z,0.00
2022-12-24T03:24:22.892Z,0.00
2022-12-24T03:25:22.857Z,0.00
2022-12-24T03:26:22.840Z,0.00
2022-12-24T03:27:22.813Z,0.00
2022-12-24T03:28:22.790Z,0.00
2022-12-24T03:29:22.775Z,0.00
2022-12-24T03:30:22.755Z,0.00
2022-12-24T03:31:22.795Z,0.00
2022-12-24T03:32:22.712Z,0.00
2022-12-24T03:33:22.705Z,0.00
2022-12-24T03:34:22.666Z,0.00
2022-12-24T03:35:22.640Z,0.00
2022-12-24T03:36:22.625Z,0.00
2022-12-24T03:37:22.613Z,0.00
2022-12-24T03:38:22.590Z,0.00
2022-12-24T03:39:22.587Z,0.00
2022-12-24T03:40:22.541Z,0.00
2022-12-24T03:41:22.515Z,0.00
2022-12-24T03:42:22.498Z,0.00
2022-12-24T03:43:22.473Z,0.00
2022-12-24T03:44:22.461Z,0.00
2022-12-24T03:45:22.438Z,0.00
2022-12-24T03:46:22.475Z,0.00
2022-12-24T03:47:22.407Z,0.00
2022-12-24T03:48:26.041Z,0.00
2022-12-24T03:49:22.367Z,0.00
2022-12-24T03:50:22.370Z,0.00
2022-12-24T03:51:22.315Z,0.00
2022-12-24T03:52:22.287Z,0.00
2022-12-24T03:53:22.269Z,0.00
2022-12-24T03:54:22.246Z,0.00
2022-12-24T03:55:22.233Z,0.00
2022-12-24T03:56:22.198Z,0.00
2022-12-24T03:57:22.189Z,0.00
2022-12-24T03:58:22.172Z,0.00
2022-12-24T03:59:22.141Z,0.00
2022-12-24T04:00:22.142Z,0.00
2022-12-24T04:01:22.364Z,0.00
2022-12-24T04:02:22.225Z,0.00
2022-12-24T04:03:22.180Z,0.00
2022-12-24T04:04:22.043Z,0.00
2022-12-24T04:05:22.034Z,0.00
2022-12-24T04:06:21.997Z,0.00
2022-12-24T04:07:21.974Z,0.00
2022-12-24T04:08:21.951Z,0.00
2022-12-24T04:09:21.927Z,0.00
2022-12-24T04:10:21.958Z,0.00
2022-12-24T04:11:21.925Z,0.00
2022-12-24T04:12:21.868Z,0.00
2022-12-24T04:13:21.846Z,0.00
2022-12-24T04:14:21.826Z,0.00
2022-12-24T04:15:21.797Z,0.00
2022-12-24T04:16:21.841Z,0.00
2022-12-24T04:17:21.771Z,0.00
2022-12-24T04:18:21.745Z,0.00
2022-12-24T04:19:21.728Z,0.00
2022-12-24T04:20:21.711Z,0.00
2022-12-24T04:21:21.705Z,0.00
2022-12-24T04:22:21.673Z,0.00
2022-12-24T04:23:21.659Z,0.00
2022-12-24T04:24:21.610Z,0.00
2022-12-24T04:25:21.907Z,0.00
2022-12-24T04:26:21.576Z,0.00
2022-12-24T04:27:25.335Z,0.00
2022-12-24T04:28:21.526Z,0.00
2022-12-24T04:29:21.510Z,0.00
2022-12-24T04:30:21.486Z,0.00
2022-12-24T04:31:21.553Z,0.00
2022-12-24T04:32:21.482Z,0.00
2022-12-24T04:33:21.425Z,0.00
2022-12-24T04:34:21.406Z,0.00
2022-12-24T04:35:21.383Z,0.00
2022-12-24T04:36:21.360Z,0.00
2022-12-24T04:37:21.429Z,0.00
2022-12-24T04:38:21.332Z,0.00
2022-12-24T04:39:21.296Z,0.00
2022-12-24T04:40:21.277Z,0.00
2022-12-24T04:41:24.450Z,0.00
2022-12-24T04:42:21.235Z,0.00
2022-12-24T04:43:21.209Z,0.00
2022-12-24T04:44:21.192Z,0.00
2022-12-24T04:45:21.164Z,0.00
2022-12-24T04:46:21.223Z,0.00
2022-12-24T04:47:21.124Z,0.00
2022-12-24T04:48:21.110Z,0.00
2022-12-24T04:49:21.081Z,0.00
2022-12-24T04:50:21.075Z,0.00
2022-12-24T04:51:21.049Z,0.00
2022-12-24T04:52:21.024Z,0.00
2022-12-24T04:53:21.015Z,0.00
2022-12-24T04:54:21.015Z,0.00
2022-12-24T04:55:20.958Z,0.00
2022-12-24T04:56:20.935Z,0.00
2022-12-24T04:57:20.922Z,0.00
2022-12-24T04:58:20.894Z,0.00
2022-12-24T04:59:20.869Z,0.00
2022-12-24T05:00:20.876Z,0.00
2022-12-24T05:01:21.002Z,0.00
2022-12-24T05:02:20.972Z,0.00
2022-12-24T05:03:20.957Z,0.00
2022-12-24T05:04:20.765Z,0.00
2022-12-24T05:05:20.740Z,0.00
2022-12-24T05:06:20.737Z,0.00
2022-12-24T05:07:20.704Z,0.00
2022-12-24T05:08:20.680Z,0.00
2022-12-24T05:09:20.693Z,0.00
2022-12-24T05:10:20.646Z,0.00
2022-12-24T05:11:20.619Z,0.00
2022-12-24T05:12:20.595Z,0.00
2022-12-24T05:13:20.586Z,0.00
2022-12-24T05:14:20.563Z,0.00
2022-12-24T05:15:20.537Z,0.00
2022-12-24T05:16:20.642Z,0.00
2022-12-24T05:17:20.488Z,0.00
2022-12-24T05:18:20.475Z,0.00
2022-12-24T05:19:20.450Z,0.00
2022-12-24T05:20:20.432Z,0.00
2022-12-24T05:21:20.402Z,0.00
2022-12-24T05:22:20.386Z,0.00
2022-12-24T05:23:20.386Z,0.00
2022-12-24T05:24:20.340Z,0.00
2022-12-24T05:25:20.346Z,0.00
2022-12-24T05:26:20.304Z,0.00
2022-12-24T05:27:20.280Z,0.00
2022-12-24T05:28:20.262Z,0.00
2022-12-24T05:29:20.245Z,0.00
2022-12-24T05:30:20.231Z,0.00
2022-12-24T05:31:20.290Z,0.00
2022-12-24T05:32:20.170Z,0.00
2022-12-24T05:33:20.153Z,0.00
2022-12-24T05:34:20.129Z,0.00
2022-12-24T05:35:20.125Z,0.00
2022-12-24T05:36:20.089Z,0.00
2022-12-24T05:37:20.067Z,0.00
2022-12-24T05:38:20.056Z,0.00
2022-12-24T05:39:20.035Z,0.00
2022-12-24T05:40:20.007Z,0.00
2022-12-24T05:41:20.005Z,0.00
2022-12-24T05:42:19.956Z,0.00
2022-12-24T05:43:19.943Z,0.00
2022-12-24T05:44:19.917Z,0.00
2022-12-24T05:45:19.914Z,0.00
2022-12-24T05:46:20.026Z,0.00
2022-12-24T05:47:19.854Z,0.00
2022-12-24T05:48:19.838Z,0.00
2022-12-24T05:49:19.819Z,0.00
2022-12-24T05:50:19.786Z,0.00
2022-12-24T05:51:19.907Z,0.00
2022-12-24T05:52:19.752Z,0.00
2022-12-24T05:53:19.735Z,0.00
2022-12-24T05:54:19.707Z,0.00
2022-12-24T05:55:19.696Z,0.00
2022-12-24T05:56:19.663Z,0.00
2022-12-24T05:57:19.671Z,0.00
2022-12-24T05:58:19.620Z,0.00
2022-12-24T05:59:19.604Z,0.00
2022-12-24T06:00:19.591Z,0.00
2022-12-24T06:01:19.695Z,0.00
2022-12-24T06:02:19.584Z,0.00
2022-12-24T06:03:19.531Z,0.00
2022-12-24T06:04:24.716Z,0.00
2022-12-24T06:05:19.475Z,0.00
2022-12-24T06:06:19.465Z,0.00
2022-12-24T06:07:19.426Z,0.00
2022-12-24T06:08:19.417Z,0.00
2022-12-24T06:09:19.396Z,0.00
2022-12-24T06:10:19.374Z,0.00
2022-12-24T06:11:19.356Z,0.00
2022-12-24T06:12:19.326Z,0.00
2022-12-24T06:13:19.326Z,0.00
2022-12-24T06:14:19.282Z,0.00
2022-12-24T06:15:23.846Z,0.00
2022-12-24T06:16:19.346Z,0.00
2022-12-24T06:17:19.221Z,0.00
2022-12-24T06:18:19.192Z,0.00
2022-12-24T06:19:19.181Z,0.00
2022-12-24T06:20:19.153Z,0.00
2022-12-24T06:21:19.146Z,0.00
2022-12-24T06:22:19.111Z,0.00
2022-12-24T06:23:19.112Z,0.00
2022-12-24T06:24:19.097Z,0.00
2022-12-24T06:25:19.440Z,0.00
2022-12-24T06:26:19.024Z,0.00
2022-12-24T06:27:19.009Z,0.00
2022-12-24T06:28:18.993Z,0.00
2022-12-24T06:29:18.985Z,0.00
2022-12-24T06:30:19.047Z,0.00
2022-12-24T06:31:19.012Z,0.00
2022-12-24T06:32:18.907Z,0.00
2022-12-24T06:33:18.883Z,0.00
2022-12-24T06:34:18.859Z,0.00
2022-12-24T06:35:18.838Z,0.00
2022-12-24T06:36:18.818Z,0.00
2022-12-24T06:37:18.798Z,0.00
2022-12-24T06:38:18.774Z,0.00
2022-12-24T06:39:18.755Z,0.00
2022-12-24T06:40:18.729Z,0.00
2022-12-24T06:41:18.714Z,0.00
2022-12-24T06:42:18.688Z,0.00
2022-12-24T06:43:18.664Z,0.00
2022-12-24T06:44:18.645Z,0.00
2022-12-24T06:45:18.645Z,0.00
2022-12-24T06:46:18.763Z,0.00
2022-12-24T06:47:18.583Z,0.00
2022-12-24T06:48:18.588Z,0.00
2022-12-24T06:49:18.538Z,0.00
2022-12-24T06:50:18.515Z,0.00
2022-12-24T06:51:18.496Z,0.00
2022-12-24T06:52:18.470Z,0.00
2022-12-24T06:53:18.450Z,0.00
2022-12-24T06:54:18.442Z,0.00
2022-12-24T06:55:18.410Z,0.00
2022-12-24T06:56:18.390Z,0.00
2022-12-24T06:57:18.382Z,0.00
2022-12-24T06:58:18.347Z,0.00
2022-12-24T06:59:18.325Z,0.00
2022-12-24T07:00:18.303Z,0.00
2022-12-24T07:01:18.461Z,0.00
2022-12-24T07:02:18.440Z,0.00
2022-12-24T07:03:18.274Z,0.00
2022-12-24T07:04:20.719Z,0.00
2022-12-24T07:05:18.200Z,0.00
2022-12-24T07:06:18.180Z,0.00
2022-12-24T07:07:18.152Z,0.00
2022-12-24T07:08:18.131Z,0.00
2022-12-24T07:09:18.113Z,0.00
2022-12-24T07:10:18.093Z,0.00
2022-12-24T07:11:18.080Z,0.00
2022-12-24T07:12:18.087Z,0.00
2022-12-24T07:13:18.027Z,0.00
2022-12-24T07:14:18.043Z,0.00
2022-12-24T07:15:18.052Z,0.00
2022-12-24T07:16:18.189Z,0.00
2022-12-24T07:17:18.211Z,0.00
2022-12-24T07:18:17.924Z,0.00
2022-12-24T07:19:17.906Z,0.00
2022-12-24T07:20:17.884Z,0.00
2022-12-24T07:21:17.867Z,0.00
2022-12-24T07:22:17.834Z,0.00
2022-12-24T07:23:17.816Z,0.00
2022-12-24T07:24:17.806Z,0.00
2022-12-24T07:25:17.775Z,0.00
2022-12-24T07:26:17.749Z,0.00
2022-12-24T07:27:17.727Z,0.00
2022-12-24T07:28:22.328Z,0.00
2022-12-24T07:29:17.689Z,0.00
2022-12-24T07:30:17.668Z,0.00
2022-12-24T07:31:17.783Z,0.00
2022-12-24T07:32:17.621Z,0.00
2022-12-24T07:33:17.632Z,0.00
2022-12-24T07:34:17.581Z,0.00
2022-12-24T07:35:17.563Z,0.00
2022-12-24T07:36:17.535Z,0.00
2022-12-24T07:37:17.521Z,0.00
2022-12-24T07:38:17.496Z,0.00
2022-12-24T07:39:17.478Z,0.00
2022-12-24T07:40:17.453Z,0.00
2022-12-24T07:41:17.435Z,0.00
2022-12-24T07:42:17.411Z,0.00
2022-12-24T07:43:17.389Z,0.00
2022-12-24T07:44:17.386Z,0.00
2022-12-24T07:45:17.356Z,0.00
2022-12-24T07:46:17.412Z,0.00
2022-12-24T07:47:17.305Z,5.63
2022-12-24T07:48:17.290Z,5.63
2022-12-24T07:49:17.289Z,11.25
2022-12-24T07:50:17.248Z,11.25
2022-12-24T07:51:17.229Z,11.25
2022-12-24T07:52:17.196Z,5.63
2022-12-24T07:53:17.187Z,5.63
2022-12-24T07:54:17.157Z,5.63
2022-12-24T07:55:17.139Z,5.63
2022-12-24T07:56:17.120Z,5.63
2022-12-24T07:57:17.097Z,5.63
2022-12-24T07:58:17.079Z,5.63
2022-12-24T07:59:17.051Z,5.63
2022-12-24T08:00:17.040Z,5.63
2022-12-24T08:01:17.080Z,11.25
2022-12-24T08:02:18.740Z,11.25
2022-12-24T08:03:17.140Z,11.25
2022-12-24T08:04:16.941Z,11.25
2022-12-24T08:05:16.956Z,5.63
2022-12-24T08:06:16.913Z,5.63
2022-12-24T08:07:16.882Z,11.25
2022-12-24T08:08:16.864Z,11.25
2022-12-24T08:09:16.855Z,5.63
2022-12-24T08:10:16.820Z,5.63
2022-12-24T08:11:16.802Z,5.63
2022-12-24T08:12:16.772Z,5.63
2022-12-24T08:13:16.776Z,5.63
2022-12-24T08:14:16.729Z,5.63
2022-12-24T08:15:16.732Z,5.63
2022-12-24T08:16:16.750Z,5.63
2022-12-24T08:17:16.674Z,5.63
2022-12-24T08:18:16.658Z,5.63
2022-12-24T08:19:16.638Z,5.63
2022-12-24T08:20:16.616Z,5.63
2022-12-24T08:21:16.616Z,5.63
2022-12-24T08:22:16.570Z,11.25
2022-12-24T08:23:16.562Z,16.88
2022-12-24T08:24:16.535Z,22.50
2022-12-24T08:25:16.509Z,22.50
2022-12-24T08:26:16.520Z,28.13
2022-12-24T08:27:16.458Z,33.75
2022-12-24T08:28:16.436Z,28.13
2022-12-24T08:29:16.423Z,22.50
2022-12-24T08:30:21.026Z,22.50
2022-12-24T08:31:16.435Z,28.13
2022-12-24T08:32:16.358Z,28.13
2022-12-24T08:33:16.347Z,28.13
2022-12-24T08:34:16.317Z,28.13
2022-12-24T08:35:16.308Z,33.75
2022-12-24T08:36:16.269Z,33.75
2022-12-24T08:37:16.281Z,39.38
2022-12-24T08:38:16.227Z,39.38
2022-12-24T08:39:16.214Z,33.75
2022-12-24T08:40:16.181Z,33.75
2022-12-24T08:41:16.168Z,28.13
2022-12-24T08:42:16.232Z,28.13
2022-12-24T08:43:16.129Z,22.50
2022-12-24T08:44:16.110Z,16.88
2022-12-24T08:45:16.085Z,28.13
2022-12-24T08:46:16.123Z,45.00
2022-12-24T08:47:16.041Z,56.25
2022-12-24T08:48:16.017Z,61.88
2022-12-24T08:49:16.008Z,61.88
2022-12-24T08:50:15.978Z,67.50
2022-12-24T08:51:15.956Z,84.38
2022-12-24T08:52:15.931Z,61.88
2022-12-24T08:53:15.958Z,56.25
2022-12-24T08:54:15.908Z,56.25
2022-12-24T08:55:15.884Z,56.25
2022-12-24T08:56:15.853Z,56.25
2022-12-24T08:57:15.843Z,67.50
2022-12-24T08:58:15.809Z,73.13
2022-12-24T08:59:15.792Z,118.13
2022-12-24T09:00:15.780Z,151.88
2022-12-24T09:01:15.903Z,146.25
2022-12-24T09:02:15.860Z,163.13
2022-12-24T09:03:15.819Z,118.13
2022-12-24T09:04:15.691Z,101.25
2022-12-24T09:05:15.676Z,67.50
2022-12-24T09:06:15.653Z,106.88
2022-12-24T09:07:15.628Z,73.13
2022-12-24T09:08:15.604Z,67.50
2022-12-24T09:09:15.613Z,78.75
2022-12-24T09:10:15.575Z,196.88
2022-12-24T09:11:15.549Z,151.88
2022-12-24T09:12:15.530Z,151.88
2022-12-24T09:13:15.510Z,112.50
2022-12-24T09:14:15.486Z,61.88
2022-12-24T09:15:15.477Z,45.00
2022-12-24T09:16:15.510Z,33.75
2022-12-24T09:17:15.434Z,33.75
2022-12-24T09:18:15.407Z,39.38
2022-12-24T09:19:15.389Z,50.63
2022-12-24T09:20:15.378Z,67.50
2022-12-24T09:21:15.350Z,50.63
2022-12-24T09:22:15.327Z,56.25
2022-12-24T09:23:15.314Z,56.25
2022-12-24T09:24:15.288Z,50.63
2022-12-24T09:25:15.293Z,50.63
2022-12-24T09:26:15.247Z,45.00
2022-12-24T09:27:15.234Z,50.63
2022-12-24T09:28:15.209Z,56.25
2022-12-24T09:29:15.189Z,50.63
2022-12-24T09:30:15.174Z,33.75
2022-12-24T09:31:15.205Z,45.00
2022-12-24T09:32:15.248Z,50.63
2022-12-24T09:33:15.112Z,61.88
2022-12-24T09:34:15.093Z,84.38
2022-12-24T09:35:15.101Z,163.13
2022-12-24T09:36:15.052Z,90.00
2022-12-24T09:37:15.041Z,73.13
2022-12-24T09:38:15.006Z,84.38
2022-12-24T09:39:14.993Z,275.63
2022-12-24T09:40:15.070Z,118.13
2022-12-24T09:41:14.970Z,106.88
2022-12-24T09:42:14.946Z,118.13
2022-12-24T09:43:14.909Z,298.13
2022-12-24T09:44:14.887Z,455.63
2022-12-24T09:45:14.884Z,174.38
2022-12-24T09:46:15.002Z,433.13
2022-12-24T09:47:14.832Z,123.75
2022-12-24T09:48:14.814Z,118.13
2022-12-24T09:49:14.803Z,123.75
2022-12-24T09:50:14.779Z,84.38
2022-12-24T09:51:14.760Z,78.75
2022-12-24T09:52:14.749Z,90.00
2022-12-24T09:53:14.725Z,84.38
2022-12-24T09:54:14.699Z,95.63
2022-12-24T09:55:14.682Z,95.63
2022-12-24T09:56:14.669Z,84.38
2022-12-24T09:57:14.664Z,106.88
2022-12-24T09:58:14.631Z,135.00
2022-12-24T09:59:14.613Z,163.13
2022-12-24T10:00:14.592Z,230.63
2022-12-24T10:01:14.685Z,140.63
2022-12-24T10:02:14.702Z,118.13
2022-12-24T10:03:14.618Z,106.88
2022-12-24T10:04:14.521Z,101.25
2022-12-24T10:05:14.498Z,123.75
2022-12-24T10:06:14.480Z,101.25
2022-12-24T10:07:14.456Z,101.25
2022-12-24T10:08:14.446Z,95.63
2022-12-24T10:09:14.421Z,73.13
2022-12-24T10:10:14.409Z,112.50
2022-12-24T10:11:14.392Z,196.88
2022-12-24T10:12:14.367Z,174.38
2022-12-24T10:13:14.372Z,101.25
2022-12-24T10:14:14.328Z,95.63
2022-12-24T10:15:14.308Z,45.00
2022-12-24T10:16:14.337Z,45.00
2022-12-24T10:17:14.317Z,50.63
2022-12-24T10:18:14.259Z,39.38
2022-12-24T10:19:14.242Z,50.63
2022-12-24T10:20:14.224Z,50.63
2022-12-24T10:21:14.207Z,39.38
2022-12-24T10:22:14.184Z,39.38
2022-12-24T10:23:14.158Z,45.00
2022-12-24T10:24:14.142Z,39.38
2022-12-24T10:25:14.124Z,39.38
2022-12-24T10:26:14.119Z,50.63
2022-12-24T10:27:14.092Z,33.75
2022-12-24T10:28:14.066Z,28.13
2022-12-24T10:29:14.070Z,22.50
2022-12-24T10:30:20.730Z,22.50
2022-12-24T10:31:14.110Z,16.88
2022-12-24T10:32:13.990Z,22.50
2022-12-24T10:33:13.969Z,33.75
2022-12-24T10:34:13.955Z,39.38
2022-12-24T10:35:13.944Z,28.13
2022-12-24T10:36:13.915Z,22.50
2022-12-24T10:37:13.889Z,28.13
2022-12-24T10:38:13.877Z,33.75
2022-12-24T10:39:13.853Z,33.75
2022-12-24T10:40:13.833Z,39.38
2022-12-24T10:41:13.819Z,33.75
2022-12-24T10:42:13.805Z,28.13
2022-12-24T10:43:13.772Z,28.13
2022-12-24T10:44:13.748Z,50.63
2022-12-24T10:45:13.757Z,78.75
2022-12-24T10:46:13.752Z,101.25
2022-12-24T10:47:13.689Z,90.00
2022-12-24T10:48:13.672Z,73.13
2022-12-24T10:49:13.649Z,50.63
2022-12-24T10:50:13.638Z,56.25
2022-12-24T10:51:13.611Z,84.38
2022-12-24T10:52:13.598Z,118.13
2022-12-24T10:53:13.582Z,101.25
2022-12-24T10:54:13.561Z,84.38
2022-12-24T10:55:13.537Z,78.75
2022-12-24T10:56:13.535Z,84.38
2022-12-24T10:57:13.496Z,106.88
2022-12-24T10:58:13.484Z,90.00
2022-12-24T10:59:13.454Z,84.38
2022-12-24T11:00:13.436Z,95.63
2022-12-24T11:01:13.564Z,90.00
2022-12-24T11:02:13.556Z,90.00
2022-12-24T11:03:13.500Z,95.63
2022-12-24T11:04:13.400Z,95.63
2022-12-24T11:05:13.334Z,84.38
2022-12-24T11:06:13.329Z,78.75
2022-12-24T11:07:13.301Z,78.75
2022-12-24T11:08:13.272Z,84.38
2022-12-24T11:09:13.279Z,84.38
2022-12-24T11:10:13.241Z,90.00
2022-12-24T11:11:13.220Z,101.25
2022-12-24T11:12:13.197Z,112.50
2022-12-24T11:13:36.723Z,106.88
2022-12-24T11:14:13.160Z,84.38
2022-12-24T11:15:13.151Z,78.75
2022-12-24T11:16:13.207Z,78.75
2022-12-24T11:17:13.117Z,84.38
2022-12-24T11:18:13.085Z,140.63
2022-12-24T11:19:13.059Z,140.63
2022-12-24T11:20:13.043Z,236.25
2022-12-24T11:21:13.022Z,213.75
2022-12-24T11:22:13.009Z,174.38
2022-12-24T11:23:12.980Z,191.25
2022-12-24T11:24:12.967Z,140.63
2022-12-24T11:25:12.948Z,135.00
2022-12-24T11:26:12.930Z,146.25
2022-12-24T11:27:12.906Z,112.50
2022-12-24T11:28:12.905Z,196.88
2022-12-24T11:29:12.871Z,101.25
2022-12-24T11:30:12.879Z,84.38
2022-12-24T11:31:12.874Z,84.38
2022-12-24T11:32:12.819Z,78.75
2022-12-24T11:33:12.818Z,90.00
2022-12-24T11:34:12.792Z,84.38
2022-12-24T11:35:12.759Z,95.63
2022-12-24T11:36:12.749Z,78.75
2022-12-24T11:37:15.154Z,140.63
2022-12-24T11:38:12.704Z,67.50
2022-12-24T11:39:12.683Z,67.50
2022-12-24T11:40:12.672Z,73.13
2022-12-24T11:41:12.682Z,73.13
2022-12-24T11:42:12.634Z,67.50
2022-12-24T11:43:14.818Z,61.88
2022-12-24T11:44:12.597Z,73.13
2022-12-24T11:45:12.574Z,67.50
2022-12-24T11:46:12.615Z,73.13
2022-12-24T11:47:12.535Z,56.25
2022-12-24T11:48:12.526Z,45.00
2022-12-24T11:49:12.555Z,39.38
2022-12-24T11:50:18.691Z,33.75
2022-12-24T11:51:12.461Z,39.38
2022-12-24T11:52:12.488Z,39.38
2022-12-24T11:53:12.424Z,39.38
2022-12-24T11:54:12.407Z,39.38
2022-12-24T11:55:16.324Z,39.38
2022-12-24T11:56:12.361Z,39.38
2022-12-24T11:57:12.343Z,45.00
2022-12-24T11:58:12.330Z,39.38
2022-12-24T11:59:12.304Z,50.63
2022-12-24T12:00:12.285Z,45.00
2022-12-24T12:01:15.868Z,56.25
2022-12-24T12:02:12.354Z,56.25
2022-12-24T12:03:12.275Z,56.25
2022-12-24T12:04:12.294Z,56.25
2022-12-24T12:05:12.224Z,45.00
2022-12-24T12:06:12.177Z,39.38
2022-12-24T12:07:15.116Z,39.38
2022-12-24T12:08:12.128Z,33.75
2022-12-24T12:09:12.104Z,33.75
2022-12-24T12:10:12.126Z,33.75
2022-12-24T12:11:12.067Z,33.75
2022-12-24T12:12:12.048Z,33.75
2022-12-24T12:13:15.437Z,33.75
2022-12-24T12:14:12.011Z,33.75
2022-12-24T12:15:11.981Z,33.75
2022-12-24T12:16:12.017Z,39.38
2022-12-24T12:17:11.955Z,39.38
2022-12-24T12:18:11.950Z,33.75
2022-12-24T12:19:15.271Z,33.75
2022-12-24T12:20:11.958Z,33.75
2022-12-24T12:21:11.889Z,33.75
2022-12-24T12:22:11.853Z,33.75
2022-12-24T12:23:11.824Z,33.75
2022-12-24T12:24:11.811Z,39.38
2022-12-24T12:25:11.783Z,45.00
2022-12-24T12:26:11.780Z,45.00
2022-12-24T12:27:11.741Z,45.00
2022-12-24T12:28:11.736Z,50.63
2022-12-24T12:29:11.723Z,11.25
2022-12-24T12:30:11.705Z,11.25
2022-12-24T12:31:16.052Z,11.25
2022-12-24T12:32:11.747Z,11.25
2022-12-24T12:33:11.670Z,11.25
2022-12-24T12:34:11.615Z,16.88
2022-12-24T12:35:11.596Z,39.38
2022-12-24T12:36:11.567Z,33.75
2022-12-24T12:37:14.864Z,16.88
2022-12-24T12:38:11.529Z,16.88
2022-12-24T12:39:11.512Z,22.50
2022-12-24T12:40:11.612Z,16.88
2022-12-24T12:41:11.471Z,39.38
2022-12-24T12:42:11.454Z,39.38
2022-12-24T12:43:14.455Z,45.00
2022-12-24T12:44:11.410Z,39.38
2022-12-24T12:45:11.383Z,39.38
2022-12-24T12:46:11.426Z,33.75
2022-12-24T12:47:11.463Z,16.88
2022-12-24T12:48:11.325Z,16.88
2022-12-24T12:49:11.315Z,11.25
2022-12-24T12:50:11.408Z,11.25
2022-12-24T12:51:11.298Z,11.25
2022-12-24T12:52:11.279Z,11.25
2022-12-24T12:53:11.252Z,16.88
2022-12-24T12:54:11.208Z,11.25
2022-12-24T12:55:11.201Z,11.25
2022-12-24T12:56:11.188Z,11.25
2022-12-24T12:57:11.153Z,5.63
2022-12-24T12:58:11.134Z,5.63
2022-12-24T12:59:11.130Z,5.63
2022-12-24T13:00:11.272Z,11.25
2022-12-24T13:01:11.268Z,11.25
2022-12-24T13:02:11.193Z,11.25
2022-12-24T13:03:11.187Z,5.63
2022-12-24T13:04:11.016Z,5.63
2022-12-24T13:05:10.994Z,5.63
2022-12-24T13:06:10.988Z,5.63